Time;durP1;ratioP1;P1;durP2;ratioP2;P2;SDS_P1;SDS_P2;PMS_P1;PMS_P2;Temp;Humidity;BMP_temperature;BMP_pressure;BME280_temperature;BME280_humidity;BME280_pressure;Samples;Min_cycle;Max_cycle;Signal;HPM_P1;HPM_P2
2023/06/22 00:01:17;;;;;;;16.67;14.90;;;;;;;;;;5079051;28;20050;-75
2023/06/22 00:03:43;;;;;;;16.77;14.27;;;;;;;;;;5082049;28;20455;-75
2023/06/22 00:06:08;;;;;;;16.33;14.82;;;;;;;;;;5073959;28;20028;-72
2023/06/22 00:08:33;;;;;;;17.23;15.43;;;;;;;;;;5074817;28;20564;-74
2023/06/22 00:10:59;;;;;;;18.08;16.17;;;;;;;;;;5075025;28;20440;-75
2023/06/22 00:13:24;;;;;;;17.98;16.13;;;;;;;;;;5081560;28;20071;-72
2023/06/22 00:15:49;;;;;;;17.45;15.73;;;;;;;;;;5081617;28;20043;-73
2023/06/22 00:18:15;;;;;;;17.83;15.80;;;;;;;;;;5078448;28;20024;-72
2023/06/22 00:20:41;;;;;;;15.63;14.00;;;;;;;;;;5071300;28;20035;-74
2023/06/22 00:23:09;;;;;;;16.00;14.50;;;;;;;;;;5076558;28;20027;-75
2023/06/22 00:25:35;;;;;;;17.35;15.73;;;;;;;;;;5075099;28;20032;-72
2023/06/22 00:28:01;;;;;;;17.52;15.90;;;;;;;;;;5078241;28;20051;-72
2023/06/22 00:30:26;;;;;;;16.10;14.65;;;;;;;;;;5069614;28;20020;-76
2023/06/22 00:32:51;;;;;;;17.00;15.50;;;;;;;;;;5078054;28;20055;-74
2023/06/22 00:35:17;;;;;;;16.13;14.82;;;;;;;;;;5079637;28;20068;-72
2023/06/22 00:37:42;;;;;;;16.73;15.25;;;;;;;;;;5074678;28;20040;-76
2023/06/22 00:40:11;;;;;;;17.38;15.68;;;;;;;;;;5072076;28;20419;-72
2023/06/22 00:42:36;;;;;;;17.40;15.60;;;;;;;;;;5080709;28;20020;-72
2023/06/22 00:45:02;;;;;;;15.25;13.75;;;;;;;;;;5080705;28;20527;-75
2023/06/22 00:47:27;;;;;;;16.27;14.68;;;;;;;;;;5081327;28;20047;-72
2023/06/22 00:49:52;;;;;;;16.63;15.07;;;;;;;;;;5073893;28;20405;-74
2023/06/22 00:52:20;;;;;;;16.73;15.32;;;;;;;;;;5079944;28;20035;-73
2023/06/22 00:54:48;;;;;;;17.35;15.88;;;;;;;;;;5072416;28;20651;-72
2023/06/22 00:57:15;;;;;;;16.65;15.13;;;;;;;;;;5081183;28;20035;-72
2023/06/22 00:59:47;;;;;;;15.98;14.68;;;;;;;;;;5084259;28;20055;-71
2023/06/22 01:02:13;;;;;;;16.75;15.35;;;;;;;;;;5082902;28;20404;-72
2023/06/22 01:04:39;;;;;;;16.60;15.10;;;;;;;;;;5084532;28;20020;-76
2023/06/22 01:07:10;;;;;;;17.02;15.63;;;;;;;;;;5083763;28;20024;-72
2023/06/22 01:09:39;;;;;;;16.65;15.30;;;;;;;;;;5070076;28;20031;-73
2023/06/22 01:12:06;;;;;;;15.57;14.18;;;;;;;;;;5083101;28;20024;-73
2023/06/22 01:14:37;;;;;;;20.70;15.18;;;;;;;;;;5074738;28;20405;-73
2023/06/22 01:17:05;;;;;;;15.90;14.50;;;;;;;;;;5068703;28;20097;-72
2023/06/22 01:19:33;;;;;;;16.40;14.90;;;;;;;;;;5069613;28;20020;-76
2023/06/22 01:22:00;;;;;;;18.20;16.23;;;;;;;;;;5070067;28;20366;-72
2023/06/22 01:24:48;;;;;;;20.25;18.13;;;;;;;;;;5069325;28;20035;-74
2023/06/22 01:27:41;;;;;;;27.85;21.00;;;;;;;;;;5073135;28;20056;-72
2023/06/22 01:30:06;;;;;;;24.80;20.80;;;;;;;;;;5082640;28;20036;-72
2023/06/22 01:32:34;;;;;;;22.73;19.63;;;;;;;;;;5076445;28;20166;-72
2023/06/22 01:35:00;;;;;;;19.05;17.15;;;;;;;;;;5077191;28;20036;-76
2023/06/22 01:37:26;;;;;;;19.40;17.48;;;;;;;;;;5080010;28;20035;-76
2023/06/22 01:39:52;;;;;;;19.27;17.05;;;;;;;;;;5069936;28;20137;-73
2023/06/22 01:42:18;;;;;;;18.13;16.23;;;;;;;;;;5084060;28;20551;-72
2023/06/22 01:44:44;;;;;;;16.25;14.73;;;;;;;;;;5082574;28;20036;-72
2023/06/22 01:47:10;;;;;;;16.17;14.75;;;;;;;;;;5083406;28;20047;-76
2023/06/22 01:49:35;;;;;;;15.52;14.02;;;;;;;;;;5083344;28;20039;-73
2023/06/22 01:52:00;;;;;;;16.15;14.57;;;;;;;;;;5078711;28;21204;-75
2023/06/22 01:54:26;;;;;;;16.63;14.68;;;;;;;;;;5070417;28;20067;-72
2023/06/22 01:56:51;;;;;;;17.65;15.85;;;;;;;;;;5081451;28;20375;-73
2023/06/22 01:59:16;;;;;;;16.45;14.82;;;;;;;;;;5072767;28;20076;-72
2023/06/22 02:01:54;;;;;;;16.13;14.50;;;;;;;;;;5078051;28;20028;-73
2023/06/22 02:04:21;;;;;;;17.63;14.68;;;;;;;;;;5081298;28;20028;-72
2023/06/22 02:06:47;;;;;;;15.82;14.27;;;;;;;;;;5081078;28;20105;-75
2023/06/22 02:09:15;;;;;;;15.60;14.05;;;;;;;;;;5072630;28;20453;-74
2023/06/22 02:11:42;;;;;;;16.48;14.88;;;;;;;;;;5081352;28;20032;-72
2023/06/22 02:14:08;;;;;;;16.73;15.02;;;;;;;;;;5071182;28;20055;-75
2023/06/22 02:16:33;;;;;;;20.58;14.52;;;;;;;;;;5076741;28;20101;-78
2023/06/22 02:19:03;;;;;;;15.00;13.55;;;;;;;;;;5075233;28;20032;-73
2023/06/22 02:21:28;;;;;;;15.57;13.65;;;;;;;;;;5080582;28;20039;-73
2023/06/22 02:23:53;;;;;;;16.58;14.93;;;;;;;;;;5074193;28;20032;-77
2023/06/22 02:26:19;;;;;;;16.80;15.38;;;;;;;;;;5078199;28;20032;-74
2023/06/22 02:28:45;;;;;;;15.80;14.30;;;;;;;;;;5079283;28;20095;-75
2023/06/22 02:31:10;;;;;;;16.45;14.68;;;;;;;;;;5075021;28;20024;-76
2023/06/22 02:33:36;;;;;;;15.68;14.18;;;;;;;;;;5071521;28;20081;-75
2023/06/22 02:36:05;;;;;;;15.85;14.25;;;;;;;;;;5072588;28;20101;-73
2023/06/22 02:38:33;;;;;;;16.47;15.10;;;;;;;;;;5075007;28;20557;-72
2023/06/22 02:40:58;;;;;;;15.02;13.55;;;;;;;;;;5077875;28;20027;-77
2023/06/22 02:43:23;;;;;;;16.33;14.77;;;;;;;;;;5071942;28;20024;-75
2023/06/22 02:45:49;;;;;;;15.98;14.27;;;;;;;;;;5073537;28;20066;-73
2023/06/22 02:48:14;;;;;;;16.83;14.25;;;;;;;;;;5080593;28;20707;-72
2023/06/22 02:50:39;;;;;;;16.38;14.77;;;;;;;;;;5072850;28;20020;-72
2023/06/22 02:53:05;;;;;;;15.20;13.77;;;;;;;;;;5067366;28;20070;-72
2023/06/22 02:55:30;;;;;;;21.00;14.98;;;;;;;;;;5067891;28;20044;-71
2023/06/22 02:57:59;;;;;;;15.52;13.57;;;;;;;;;;5075869;28;20048;-72
2023/06/22 03:00:30;;;;;;;15.20;13.77;;;;;;;;;;5081486;28;20151;-72
2023/06/22 03:02:55;;;;;;;16.50;14.85;;;;;;;;;;5082607;28;20340;-74
2023/06/22 03:05:21;;;;;;;15.18;13.88;;;;;;;;;;5079223;28;20031;-72
2023/06/22 03:07:47;;;;;;;16.33;14.73;;;;;;;;;;5078178;28;20020;-76
2023/06/22 03:10:13;;;;;;;16.25;14.70;;;;;;;;;;5070397;28;20028;-72
2023/06/22 03:12:39;;;;;;;15.10;13.65;;;;;;;;;;5066271;28;20020;-74
2023/06/22 03:15:13;;;;;;;15.70;14.07;;;;;;;;;;5080402;28;20042;-72
2023/06/22 03:17:39;;;;;;;15.60;14.07;;;;;;;;;;5080484;28;20139;-73
2023/06/22 03:20:09;;;;;;;15.52;13.98;;;;;;;;;;5070953;28;22433;-75
2023/06/22 03:22:35;;;;;;;15.65;14.15;;;;;;;;;;5078410;28;20073;-72
2023/06/22 03:25:01;;;;;;;15.77;14.32;;;;;;;;;;5070478;28;20040;-74
2023/06/22 03:27:26;;;;;;;15.30;13.90;;;;;;;;;;5079148;28;20024;-75
2023/06/22 03:29:51;;;;;;;15.60;14.00;;;;;;;;;;5080781;28;20089;-76
2023/06/22 03:32:17;;;;;;;16.05;14.35;;;;;;;;;;5081914;28;20419;-75
2023/06/22 03:34:46;;;;;;;16.25;14.75;;;;;;;;;;5081635;28;20039;-73
2023/06/22 03:37:12;;;;;;;15.38;13.93;;;;;;;;;;5080706;28;20114;-74
2023/06/22 03:39:38;;;;;;;14.77;13.38;;;;;;;;;;5070530;28;20146;-73
2023/06/22 03:42:03;;;;;;;15.60;14.10;;;;;;;;;;5078938;28;20504;-78
2023/06/22 03:44:28;;;;;;;16.60;15.00;;;;;;;;;;5071313;28;20447;-73
2023/06/22 03:46:54;;;;;;;16.85;15.25;;;;;;;;;;5077154;28;20312;-72
2023/06/22 03:49:19;;;;;;;16.73;15.27;;;;;;;;;;5080771;28;20033;-74
2023/06/22 03:51:44;;;;;;;16.90;15.30;;;;;;;;;;5080142;28;20028;-73
2023/06/22 03:54:10;;;;;;;15.75;14.20;;;;;;;;;;5072796;28;20107;-73
2023/06/22 03:56:35;;;;;;;16.67;13.70;;;;;;;;;;5078750;28;20157;-77
2023/06/22 03:59:00;;;;;;;15.55;14.15;;;;;;;;;;5079090;28;20106;-73
2023/06/22 04:01:26;;;;;;;15.43;13.73;;;;;;;;;;5078791;28;20028;-75
2023/06/22 04:03:51;;;;;;;16.05;14.38;;;;;;;;;;5068517;28;20123;-72
2023/06/22 04:06:16;;;;;;;15.15;13.80;;;;;;;;;;5081755;28;20036;-72
2023/06/22 04:08:42;;;;;;;15.77;14.32;;;;;;;;;;5073884;28;20546;-72
2023/06/22 04:11:07;;;;;;;14.95;13.57;;;;;;;;;;5073824;28;20336;-73
2023/06/22 04:13:33;;;;;;;14.98;13.40;;;;;;;;;;5076564;28;20035;-74
2023/06/22 04:15:58;;;;;;;15.23;13.93;;;;;;;;;;5079880;28;20094;-77
2023/06/22 04:18:23;;;;;;;16.25;14.77;;;;;;;;;;5078609;28;20510;-74
2023/06/22 04:20:49;;;;;;;14.75;13.35;;;;;;;;;;5080863;28;20020;-75
2023/06/22 04:23:14;;;;;;;15.27;13.98;;;;;;;;;;5073716;28;20032;-77
2023/06/22 04:25:39;;;;;;;15.25;13.82;;;;;;;;;;5075185;28;20111;-78
2023/06/22 04:28:05;;;;;;;15.43;13.73;;;;;;;;;;5069194;28;20627;-73
2023/06/22 04:30:32;;;;;;;15.40;14.00;;;;;;;;;;5063889;28;20020;-73
2023/06/22 04:32:57;;;;;;;15.35;13.80;;;;;;;;;;5071533;28;20035;-73
2023/06/22 04:35:26;;;;;;;15.73;14.15;;;;;;;;;;5070337;28;20044;-77
2023/06/22 04:37:54;;;;;;;14.73;13.38;;;;;;;;;;5070521;28;20068;-76
2023/06/22 04:40:20;;;;;;;14.98;13.27;;;;;;;;;;5070709;28;20157;-75
2023/06/22 04:42:52;;;;;;;16.90;14.85;;;;;;;;;;5070984;28;20118;-77
2023/06/22 04:45:17;;;;;;;15.45;14.13;;;;;;;;;;5083600;28;20028;-75
2023/06/22 04:47:44;;;;;;;14.63;13.23;;;;;;;;;;5070114;28;20027;-81
2023/06/22 04:50:10;;;;;;;15.95;14.38;;;;;;;;;;5076732;28;20020;-78
2023/06/22 04:52:36;;;;;;;16.13;14.48;;;;;;;;;;5082853;28;20688;-81
2023/06/22 04:55:01;;;;;;;16.92;15.32;;;;;;;;;;5081449;28;20032;-78
2023/06/22 04:57:32;;;;;;;14.90;13.38;;;;;;;;;;5080760;28;20088;-78
2023/06/22 04:59:57;;;;;;;15.50;14.07;;;;;;;;;;5084569;28;20170;-78
2023/06/22 05:02:27;;;;;;;15.25;13.90;;;;;;;;;;5082711;28;20127;-78
2023/06/22 05:04:56;;;;;;;17.15;14.63;;;;;;;;;;5085175;28;20024;-79
2023/06/22 05:07:25;;;;;;;16.58;14.98;;;;;;;;;;5082505;28;20118;-78
2023/06/22 05:09:50;;;;;;;16.83;15.03;;;;;;;;;;5081555;28;20036;-80
2023/06/22 05:12:16;;;;;;;17.52;15.82;;;;;;;;;;5082934;28;20161;-78
2023/06/22 05:14:41;;;;;;;17.35;15.48;;;;;;;;;;5080379;28;20852;-79
2023/06/22 05:17:13;;;;;;;21.30;15.75;;;;;;;;;;5081848;28;20057;-79
2023/06/22 05:19:39;;;;;;;18.92;17.02;;;;;;;;;;5083271;28;20031;-79
2023/06/22 05:22:06;;;;;;;20.77;17.15;;;;;;;;;;5083041;28;20028;-80
2023/06/22 05:24:31;;;;;;;18.80;16.88;;;;;;;;;;5083918;28;20038;-79
2023/06/22 05:26:57;;;;;;;19.08;17.05;;;;;;;;;;5082159;28;20024;-77
2023/06/22 05:29:22;;;;;;;17.02;15.45;;;;;;;;;;5080704;28;20032;-76
2023/06/22 05:31:48;;;;;;;17.98;15.88;;;;;;;;;;5079563;28;20016;-78
2023/06/22 05:34:13;;;;;;;17.45;15.85;;;;;;;;;;5082103;28;20699;-78
2023/06/22 05:36:39;;;;;;;16.73;15.05;;;;;;;;;;5072965;28;20059;-78
2023/06/22 05:39:11;;;;;;;16.48;14.98;;;;;;;;;;5078947;28;20547;-79
2023/06/22 05:41:37;;;;;;;16.90;15.40;;;;;;;;;;5081903;28;20056;-79
2023/06/22 05:44:02;;;;;;;16.85;15.25;;;;;;;;;;5081217;28;20446;-78
2023/06/22 05:46:27;;;;;;;16.92;15.32;;;;;;;;;;5082861;28;20090;-77
2023/06/22 05:48:53;;;;;;;17.08;15.50;;;;;;;;;;5081709;28;20450;-76
2023/06/22 05:51:18;;;;;;;16.27;14.60;;;;;;;;;;5069906;28;20025;-83
2023/06/22 05:53:44;;;;;;;16.45;14.93;;;;;;;;;;5082294;28;20035;-80
2023/06/22 05:56:09;;;;;;;16.25;14.75;;;;;;;;;;5079922;28;20062;-80
2023/06/22 05:58:35;;;;;;;16.45;14.77;;;;;;;;;;5082807;28;20048;-79
2023/06/22 06:01:00;;;;;;;16.00;14.38;;;;;;;;;;5081795;28;20028;-79
2023/06/22 06:03:28;;;;;;;18.25;14.43;;;;;;;;;;5081738;28;21564;-79
2023/06/22 06:05:54;;;;;;;15.82;14.23;;;;;;;;;;5081409;28;20343;-80
2023/06/22 06:08:19;;;;;;;15.40;13.90;;;;;;;;;;5080632;28;20031;-83
2023/06/22 06:10:44;;;;;;;17.40;15.75;;;;;;;;;;5082528;28;20024;-82
2023/06/22 06:13:10;;;;;;;17.42;15.80;;;;;;;;;;5081201;28;20435;-81
2023/06/22 06:15:35;;;;;;;17.73;16.10;;;;;;;;;;5082834;28;20497;-81
2023/06/22 06:18:01;;;;;;;16.58;14.65;;;;;;;;;;5082413;28;20036;-79
2023/06/22 06:20:29;;;;;;;17.35;14.57;;;;;;;;;;5082104;28;20022;-79
2023/06/22 06:22:55;;;;;;;15.85;14.07;;;;;;;;;;5081115;28;20059;-81
2023/06/22 06:25:21;;;;;;;14.85;13.55;;;;;;;;;;5081488;28;20038;-78
2023/06/22 06:27:48;;;;;;;14.50;13.07;;;;;;;;;;5082407;28;20024;-80
2023/06/22 06:30:14;;;;;;;14.25;12.95;;;;;;;;;;5083902;28;20019;-79
2023/06/22 06:32:39;;;;;;;15.07;13.65;;;;;;;;;;5082439;28;20057;-79
2023/06/22 06:35:09;;;;;;;15.15;13.75;;;;;;;;;;5080236;28;20393;-81
2023/06/22 06:37:38;;;;;;;14.15;12.73;;;;;;;;;;5080495;28;20492;-81
2023/06/22 06:40:05;;;;;;;15.85;13.73;;;;;;;;;;5079891;28;20028;-77
2023/06/22 06:42:31;;;;;;;14.77;13.50;;;;;;;;;;5081191;28;20093;-80
2023/06/22 06:44:56;;;;;;;14.57;13.10;;;;;;;;;;5080779;28;20036;-83
2023/06/22 06:47:22;;;;;;;14.30;13.00;;;;;;;;;;5081749;28;20035;-79
2023/06/22 06:49:47;;;;;;;15.55;14.15;;;;;;;;;;5079418;28;20419;-81
2023/06/22 06:52:12;;;;;;;13.98;12.68;;;;;;;;;;5078665;28;20459;-77
2023/06/22 06:54:38;;;;;;;13.77;12.40;;;;;;;;;;5080469;28;20507;-79
2023/06/22 06:57:03;;;;;;;13.60;12.52;;;;;;;;;;5079145;28;20138;-78
2023/06/22 06:59:30;;;;;;;14.63;13.43;;;;;;;;;;5081775;28;20077;-77
2023/06/22 07:01:55;;;;;;;14.82;13.52;;;;;;;;;;5078462;28;20111;-81
2023/06/22 07:04:21;;;;;;;16.58;14.07;;;;;;;;;;5080613;28;20158;-79
2023/06/22 07:06:46;;;;;;;14.88;13.40;;;;;;;;;;5076947;28;20024;-79
2023/06/22 07:09:11;;;;;;;15.35;13.45;;;;;;;;;;5079831;28;20031;-81
2023/06/22 07:11:37;;;;;;;16.00;14.30;;;;;;;;;;5079233;28;20032;-79
2023/06/22 07:14:02;;;;;;;14.02;12.80;;;;;;;;;;5080444;28;20035;-78
2023/06/22 07:16:28;;;;;;;15.07;13.70;;;;;;;;;;5080568;28;20042;-77
2023/06/22 07:18:54;;;;;;;14.70;13.38;;;;;;;;;;5080092;28;20093;-78
2023/06/22 07:21:19;;;;;;;15.18;13.88;;;;;;;;;;5079855;28;20054;-85
2023/06/22 07:23:44;;;;;;;17.88;13.32;;;;;;;;;;5082507;28;20016;-79
2023/06/22 07:26:12;;;;;;;15.00;13.48;;;;;;;;;;5079973;28;20043;-80
2023/06/22 07:28:38;;;;;;;15.52;13.73;;;;;;;;;;5080155;28;20017;-78
2023/06/22 07:31:04;;;;;;;16.00;14.45;;;;;;;;;;5080246;28;20028;-83
2023/06/22 07:33:29;;;;;;;14.32;13.02;;;;;;;;;;5081445;28;20024;-83
2023/06/22 07:35:55;;;;;;;14.07;12.70;;;;;;;;;;5079534;28;20047;-81
2023/06/22 07:38:20;;;;;;;13.57;11.43;;;;;;;;;;5080691;28;20028;-82
2023/06/22 07:40:45;;;;;;;12.70;11.55;;;;;;;;;;5078432;28;20109;-79
2023/06/22 07:43:11;;;;;;;13.25;11.90;;;;;;;;;;5081699;28;20117;-80
2023/06/22 07:45:38;;;;;;;12.40;11.38;;;;;;;;;;5077340;28;20043;-78
2023/06/22 07:48:03;;;;;;;12.25;11.25;;;;;;;;;;5081361;28;20414;-81
2023/06/22 07:50:28;;;;;;;12.48;11.38;;;;;;;;;;5080129;28;20059;-78
2023/06/22 07:52:54;;;;;;;11.38;10.40;;;;;;;;;;5077802;28;20446;-82
2023/06/22 07:55:19;;;;;;;11.10;10.27;;;;;;;;;;5080743;28;20477;-81
2023/06/22 07:57:47;;;;;;;11.02;10.02;;;;;;;;;;5077300;28;20463;-80
2023/06/22 08:00:14;;;;;;;9.93;8.88;;;;;;;;;;5080558;28;20499;-79
2023/06/22 08:02:40;;;;;;;10.05;9.25;;;;;;;;;;5079763;28;20111;-79
2023/06/22 08:05:08;;;;;;;9.77;8.98;;;;;;;;;;5078072;28;20379;-79
2023/06/22 08:07:33;;;;;;;9.98;9.05;;;;;;;;;;5081648;28;20082;-82
2023/06/22 08:09:58;;;;;;;10.07;9.23;;;;;;;;;;5080289;28;20032;-80
2023/06/22 08:12:24;;;;;;;9.43;8.60;;;;;;;;;;5080203;28;20608;-78
2023/06/22 08:14:50;;;;;;;9.43;8.52;;;;;;;;;;5078447;28;20707;-80
2023/06/22 08:17:15;;;;;;;10.02;9.23;;;;;;;;;;5081879;28;20028;-79
2023/06/22 08:19:41;;;;;;;10.48;9.38;;;;;;;;;;5077927;28;20121;-78
2023/06/22 08:22:06;;;;;;;9.73;8.93;;;;;;;;;;5078699;28;20035;-79
2023/06/22 08:24:31;;;;;;;9.70;8.90;;;;;;;;;;5078767;28;20020;-81
2023/06/22 08:26:57;;;;;;;9.40;8.55;;;;;;;;;;5077854;28;20028;-84
2023/06/22 08:29:22;;;;;;;9.52;8.63;;;;;;;;;;5067507;28;20051;-81
2023/06/22 08:31:47;;;;;;;9.43;8.57;;;;;;;;;;5067492;28;20016;-81
2023/06/22 08:34:13;;;;;;;10.27;9.40;;;;;;;;;;5066196;28;20027;-84
2023/06/22 08:36:44;;;;;;;9.70;8.80;;;;;;;;;;5078075;28;20058;-80
2023/06/22 08:39:10;;;;;;;10.20;8.73;;;;;;;;;;5068382;28;20108;-81
2023/06/22 08:41:35;;;;;;;9.73;8.88;;;;;;;;;;5067145;28;20020;-81
2023/06/22 08:44:00;;;;;;;10.20;9.40;;;;;;;;;;5068085;28;20050;-78
2023/06/22 08:46:30;;;;;;;9.18;8.18;;;;;;;;;;5067727;28;20035;-79
2023/06/22 08:48:57;;;;;;;9.75;8.88;;;;;;;;;;5067113;28;20557;-81
2023/06/22 08:51:24;;;;;;;9.55;8.65;;;;;;;;;;5066907;28;20024;-82
2023/06/22 08:53:50;;;;;;;9.35;8.55;;;;;;;;;;5062827;28;20032;-82
2023/06/22 08:56:15;;;;;;;10.40;9.48;;;;;;;;;;5068137;28;20074;-85
2023/06/22 08:58:40;;;;;;;8.88;8.07;;;;;;;;;;5070003;28;20050;-82
2023/06/22 09:01:06;;;;;;;9.38;8.27;;;;;;;;;;5068828;28;20028;-86
2023/06/22 09:03:32;;;;;;;9.88;9.07;;;;;;;;;;5066739;28;20342;-80
2023/06/22 09:05:58;;;;;;;8.95;8.18;;;;;;;;;;5065080;28;20180;-81
2023/06/22 09:08:23;;;;;;;9.27;8.50;;;;;;;;;;5068635;28;20103;-80
2023/06/22 09:10:48;;;;;;;8.45;7.75;;;;;;;;;;5068243;28;20839;-84
2023/06/22 09:13:14;;;;;;;9.63;8.05;;;;;;;;;;5069178;28;20357;-83
2023/06/22 09:15:39;;;;;;;9.48;8.60;;;;;;;;;;5071132;28;20454;-82
2023/06/22 09:18:05;;;;;;;8.98;8.18;;;;;;;;;;5071554;28;20036;-81
2023/06/22 09:20:31;;;;;;;9.10;8.30;;;;;;;;;;5070585;28;20074;-77
2023/06/22 09:22:56;;;;;;;8.30;7.60;;;;;;;;;;5077644;28;20036;-78
2023/06/22 09:25:21;;;;;;;8.82;7.88;;;;;;;;;;5081149;28;20078;-77
2023/06/22 09:27:47;;;;;;;9.20;8.35;;;;;;;;;;5069532;28;20028;-76
2023/06/22 09:30:12;;;;;;;8.57;7.88;;;;;;;;;;5070018;28;20026;-79
2023/06/22 09:32:38;;;;;;;8.20;7.43;;;;;;;;;;5077010;28;20031;-79
2023/06/22 09:35:05;;;;;;;8.27;7.45;;;;;;;;;;5083866;28;20383;-81
2023/06/22 09:37:30;;;;;;;9.18;8.23;;;;;;;;;;5083124;28;20028;-77
2023/06/22 09:39:56;;;;;;;8.40;7.72;;;;;;;;;;5084176;28;20021;-76
2023/06/22 09:42:21;;;;;;;8.95;7.97;;;;;;;;;;5083164;28;20028;-78
2023/06/22 09:44:46;;;;;;;8.65;7.85;;;;;;;;;;5083833;28;20032;-78
2023/06/22 09:47:12;;;;;;;8.20;7.50;;;;;;;;;;5082945;28;20089;-80
2023/06/22 09:49:37;;;;;;;8.63;7.82;;;;;;;;;;5082652;28;20103;-78
2023/06/22 09:52:02;;;;;;;8.57;7.80;;;;;;;;;;5081517;28;20466;-77
2023/06/22 09:54:28;;;;;;;9.77;7.88;;;;;;;;;;5070767;28;20043;-83
2023/06/22 09:56:53;;;;;;;9.15;8.25;;;;;;;;;;5077920;28;20032;-82
2023/06/22 09:59:18;;;;;;;8.77;8.00;;;;;;;;;;5067979;28;20073;-80
2023/06/22 10:01:44;;;;;;;8.73;8.02;;;;;;;;;;5076675;28;20024;-75
2023/06/22 10:04:09;;;;;;;8.05;7.45;;;;;;;;;;5082973;28;20024;-76
2023/06/22 10:06:34;;;;;;;8.15;7.45;;;;;;;;;;5083647;28;20024;-78
2023/06/22 10:09:00;;;;;;;7.80;7.28;;;;;;;;;;5080198;28;20030;-78
2023/06/22 10:11:29;;;;;;;8.20;7.60;;;;;;;;;;5082476;28;20023;-77
2023/06/22 10:13:54;;;;;;;7.68;7.05;;;;;;;;;;5079531;28;20077;-77
2023/06/22 10:16:19;;;;;;;8.65;7.78;;;;;;;;;;5082767;28;20342;-79
2023/06/22 10:18:45;;;;;;;8.18;7.57;;;;;;;;;;5083750;28;20070;-78
2023/06/22 10:21:10;;;;;;;8.23;7.63;;;;;;;;;;5082565;28;20348;-78
2023/06/22 10:23:35;;;;;;;8.68;7.90;;;;;;;;;;5082041;28;20031;-77
2023/06/22 10:26:01;;;;;;;9.23;7.78;;;;;;;;;;5071844;28;20070;-80
2023/06/22 10:28:26;;;;;;;8.23;7.63;;;;;;;;;;5080834;28;20035;-78
2023/06/22 10:30:51;;;;;;;7.88;7.28;;;;;;;;;;5064971;28;20359;-81
2023/06/22 10:33:17;;;;;;;7.80;7.20;;;;;;;;;;5066018;28;20021;-81
2023/06/22 10:35:42;;;;;;;7.85;7.25;;;;;;;;;;5069230;28;20123;-82
2023/06/22 10:38:08;;;;;;;8.30;7.60;;;;;;;;;;5081573;28;20445;-79
2023/06/22 10:40:33;;;;;;;7.32;6.68;;;;;;;;;;5083160;28;20037;-77
2023/06/22 10:42:59;;;;;;;7.72;7.13;;;;;;;;;;5079610;28;20419;-76
2023/06/22 10:45:24;;;;;;;12.80;7.18;;;;;;;;;;5078142;28;20024;-76
2023/06/22 10:47:49;;;;;;;7.47;6.88;;;;;;;;;;5081276;28;20032;-76
2023/06/22 10:50:15;;;;;;;6.63;6.03;;;;;;;;;;5080193;28;20161;-78
2023/06/22 10:52:41;;;;;;;7.40;6.53;;;;;;;;;;5080867;28;20128;-77
2023/06/22 10:55:07;;;;;;;7.78;7.00;;;;;;;;;;5082145;28;20089;-77
2023/06/22 10:57:32;;;;;;;8.07;7.38;;;;;;;;;;5081245;28;20398;-78
2023/06/22 10:59:58;;;;;;;8.30;7.60;;;;;;;;;;5068988;28;20371;-76
2023/06/22 11:02:24;;;;;;;7.55;6.95;;;;;;;;;;5067341;28;20121;-76
2023/06/22 11:04:49;;;;;;;7.78;7.18;;;;;;;;;;5068389;28;20062;-79
2023/06/22 11:07:15;;;;;;;7.03;6.43;;;;;;;;;;5081346;28;20059;-79
2023/06/22 11:09:42;;;;;;;7.55;6.95;;;;;;;;;;5077476;28;20167;-80
2023/06/22 11:12:08;;;;;;;7.45;6.93;;;;;;;;;;5081835;28;20024;-79
2023/06/22 11:14:33;;;;;;;8.00;7.18;;;;;;;;;;5080074;28;20328;-78
2023/06/22 11:16:59;;;;;;;7.75;7.15;;;;;;;;;;5080728;28;20031;-77
2023/06/22 11:19:24;;;;;;;7.72;7.13;;;;;;;;;;5081681;28;20027;-78
2023/06/22 11:21:49;;;;;;;8.45;7.75;;;;;;;;;;5078530;28;20056;-77
2023/06/22 11:24:15;;;;;;;7.47;6.97;;;;;;;;;;5080117;28;20024;-82
2023/06/22 11:26:41;;;;;;;7.95;7.25;;;;;;;;;;5076468;28;20024;-80
2023/06/22 11:29:07;;;;;;;8.30;7.70;;;;;;;;;;5067135;28;20043;-79
2023/06/22 11:31:34;;;;;;;7.45;6.80;;;;;;;;;;5066277;28;20363;-79
2023/06/22 11:33:59;;;;;;;8.10;7.30;;;;;;;;;;5067632;28;20047;-78
2023/06/22 11:36:25;;;;;;;7.93;7.13;;;;;;;;;;5067277;28;20350;-81
2023/06/22 11:38:51;;;;;;;8.45;7.65;;;;;;;;;;5064670;28;20060;-81
2023/06/22 11:41:16;;;;;;;8.68;7.97;;;;;;;;;;5063006;28;20024;-78
2023/06/22 11:43:42;;;;;;;7.55;6.95;;;;;;;;;;5066300;28;20043;-77
2023/06/22 11:46:07;;;;;;;8.20;7.40;;;;;;;;;;5068385;28;20708;-78
2023/06/22 11:48:32;;;;;;;7.97;7.38;;;;;;;;;;5060213;28;20035;-79
2023/06/22 11:50:58;;;;;;;7.65;7.05;;;;;;;;;;5067489;28;20095;-78
2023/06/22 11:53:25;;;;;;;8.00;7.22;;;;;;;;;;5067220;28;20028;-78
2023/06/22 11:55:51;;;;;;;8.63;7.22;;;;;;;;;;5066226;28;20028;-79
2023/06/22 11:58:16;;;;;;;9.73;7.32;;;;;;;;;;5065535;28;20062;-80
2023/06/22 12:00:41;;;;;;;8.23;7.63;;;;;;;;;;5065498;28;20439;-81
2023/06/22 12:03:07;;;;;;;7.95;7.38;;;;;;;;;;5067350;28;20482;-78
2023/06/22 12:05:32;;;;;;;8.00;7.38;;;;;;;;;;5066600;28;20100;-75
2023/06/22 12:07:58;;;;;;;8.23;7.53;;;;;;;;;;5066575;28;20055;-79
2023/06/22 12:10:25;;;;;;;8.13;7.35;;;;;;;;;;5067348;28;20501;-76
2023/06/22 12:12:50;;;;;;;8.10;7.30;;;;;;;;;;5066731;28;20028;-78
2023/06/22 12:15:16;;;;;;;8.20;7.50;;;;;;;;;;5065150;28;20032;-80
2023/06/22 12:17:41;;;;;;;7.82;7.13;;;;;;;;;;5065529;28;20055;-77
2023/06/22 12:20:07;;;;;;;7.70;7.20;;;;;;;;;;5066627;28;20338;-78
2023/06/22 12:22:33;;;;;;;7.90;7.40;;;;;;;;;;5075993;28;20456;-76
2023/06/22 12:24:58;;;;;;;8.35;7.55;;;;;;;;;;5076710;28;20032;-77
2023/06/22 12:27:24;;;;;;;8.25;7.40;;;;;;;;;;5079773;28;20400;-77
2023/06/22 12:29:50;;;;;;;10.80;7.60;;;;;;;;;;5079890;28;20055;-82
2023/06/22 12:32:15;;;;;;;7.63;7.03;;;;;;;;;;5080582;28;20071;-79
2023/06/22 12:34:44;;;;;;;7.72;7.03;;;;;;;;;;5072030;28;20067;-80
2023/06/22 12:37:09;;;;;;;8.45;7.43;;;;;;;;;;5065226;28;20023;-82
2023/06/22 12:39:35;;;;;;;8.02;7.38;;;;;;;;;;5067005;28;20017;-83
2023/06/22 12:42:00;;;;;;;8.73;7.30;;;;;;;;;;5069868;28;20059;-78
2023/06/22 12:44:26;;;;;;;7.68;7.10;;;;;;;;;;5069020;28;20455;-82
2023/06/22 12:46:51;;;;;;;7.53;6.93;;;;;;;;;;5068118;28;21033;-78
2023/06/22 12:49:16;;;;;;;7.47;6.78;;;;;;;;;;5080630;28;20074;-77
2023/06/22 12:51:42;;;;;;;8.15;6.82;;;;;;;;;;5084033;28;20340;-78
2023/06/22 12:54:08;;;;;;;8.43;7.60;;;;;;;;;;5074839;28;20107;-82
2023/06/22 12:56:33;;;;;;;7.75;7.15;;;;;;;;;;5082873;28;20404;-78
2023/06/22 12:59:01;;;;;;;7.80;7.10;;;;;;;;;;5081357;28;20395;-81
2023/06/22 13:01:27;;;;;;;7.60;6.90;;;;;;;;;;5084450;28;20052;-79
2023/06/22 13:03:52;;;;;;;7.47;6.88;;;;;;;;;;5084310;28;20074;-79
2023/06/22 13:06:17;;;;;;;8.25;7.55;;;;;;;;;;5082528;28;20040;-79
2023/06/22 13:08:43;;;;;;;9.40;7.18;;;;;;;;;;5082532;28;20023;-79
2023/06/22 13:11:08;;;;;;;9.23;7.15;;;;;;;;;;5082760;28;20036;-78
2023/06/22 13:13:34;;;;;;;9.88;6.82;;;;;;;;;;5083519;28;20019;-75
2023/06/22 13:15:59;;;;;;;7.88;7.18;;;;;;;;;;5083048;28;20040;-79
2023/06/22 13:18:24;;;;;;;7.85;7.15;;;;;;;;;;5081874;28;20764;-76
2023/06/22 13:20:50;;;;;;;8.82;8.02;;;;;;;;;;5081418;28;20106;-78
2023/06/22 13:23:15;;;;;;;8.48;7.68;;;;;;;;;;5078466;28;20016;-78
2023/06/22 13:25:40;;;;;;;8.82;7.93;;;;;;;;;;5080382;28;20064;-76
2023/06/22 13:28:06;;;;;;;8.57;7.75;;;;;;;;;;5083008;28;20411;-76
2023/06/22 13:30:31;;;;;;;8.65;7.85;;;;;;;;;;5082295;28;20442;-76
2023/06/22 13:32:57;;;;;;;9.18;7.70;;;;;;;;;;5079138;28;20265;-78
2023/06/22 13:35:22;;;;;;;9.13;8.10;;;;;;;;;;5078295;28;20037;-75
2023/06/22 13:37:47;;;;;;;8.20;7.50;;;;;;;;;;5081613;28;20028;-79
2023/06/22 13:40:13;;;;;;;8.82;7.93;;;;;;;;;;5080192;28;20329;-80
2023/06/22 13:42:38;;;;;;;8.80;8.07;;;;;;;;;;5069807;28;20020;-78
2023/06/22 13:45:05;;;;;;;9.02;8.13;;;;;;;;;;5081471;28;20028;-77
2023/06/22 13:47:30;;;;;;;9.30;8.30;;;;;;;;;;5079727;28;20032;-76
2023/06/22 13:49:57;;;;;;;9.10;8.35;;;;;;;;;;5083765;28;20031;-77
2023/06/22 13:52:23;;;;;;;9.95;9.13;;;;;;;;;;5071443;28;20123;-83
2023/06/22 13:54:48;;;;;;;9.05;8.25;;;;;;;;;;5081658;28;20040;-81
2023/06/22 13:57:13;;;;;;;10.07;9.27;;;;;;;;;;5069695;28;20031;-79
2023/06/22 13:59:38;;;;;;;9.85;8.68;;;;;;;;;;5075611;28;20075;-79
2023/06/22 14:02:04;;;;;;;9.00;8.27;;;;;;;;;;5083081;28;20153;-80
2023/06/22 14:04:29;;;;;;;9.02;8.30;;;;;;;;;;5081087;28;20116;-80
2023/06/22 14:06:55;;;;;;;9.60;8.80;;;;;;;;;;5069099;28;20470;-81
2023/06/22 14:09:21;;;;;;;9.98;8.75;;;;;;;;;;5068978;28;20024;-80
2023/06/22 14:11:46;;;;;;;9.30;8.40;;;;;;;;;;5078540;28;20024;-79
2023/06/22 14:14:11;;;;;;;9.45;8.63;;;;;;;;;;5079909;28;20024;-79
2023/06/22 14:16:38;;;;;;;9.82;9.02;;;;;;;;;;5082601;28;20570;-83
2023/06/22 14:19:03;;;;;;;10.82;9.13;;;;;;;;;;5078721;28;20926;-77
2023/06/22 14:21:29;;;;;;;9.20;8.50;;;;;;;;;;5078795;28;20028;-79